Time;durP1;ratioP1;P1;durP2;ratioP2;P2;SDS_P1;SDS_P2;PMS_P1;PMS_P2;Temp;Humidity;BMP_temperature;BMP_pressure;BME280_temperature;BME280_humidity;BME280_pressure;Samples;Min_cycle;Max_cycle;Signal;HPM_P1;HPM_P2
2021/04/06 00:02:27;;;;;;;1.50;0.97;;;1.50;99.90;;;;;;4987057;28;20442;-49
2021/04/06 00:04:58;;;;;;;1.67;1.10;;;1.40;99.90;;;;;;4986889;28;21032;-52
2021/04/06 00:07:24;;;;;;;2.37;1.20;;;1.40;99.90;;;;;;4986728;28;20474;-52
2021/04/06 00:09:53;;;;;;;1.90;1.20;;;1.40;99.90;;;;;;4986470;28;20875;-51
2021/04/06 00:12:21;;;;;;;7.13;1.30;;;1.40;99.90;;;;;;4986833;28;20454;-53
2021/04/06 00:14:50;;;;;;;5.23;1.03;;;1.30;99.90;;;;;;4984606;28;20487;-53
2021/04/06 00:17:18;;;;;;;4.73;2.07;;;1.30;99.90;;;;;;4986250;28;20550;-51
2021/04/06 00:19:47;;;;;;;2.97;1.67;;;1.30;99.90;;;;;;4986032;28;20454;-51
2021/04/06 00:22:17;;;;;;;3.20;1.13;;;1.30;99.90;;;;;;4985798;28;20461;-54
2021/04/06 00:24:46;;;;;;;5.47;1.53;;;1.30;99.90;;;;;;4985633;28;20457;-53
2021/04/06 00:27:16;;;;;;;4.80;1.53;;;1.30;99.90;;;;;;4985604;28;20831;-53
2021/04/06 00:29:46;;;;;;;1.77;1.00;;;1.30;99.90;;;;;;4989227;28;20474;-54
2021/04/06 00:32:15;;;;;;;4.20;1.00;;;1.30;99.90;;;;;;4990093;28;20443;-52
2021/04/06 00:34:43;;;;;;;8.00;1.40;;;1.30;99.90;;;;;;4990906;28;20442;-54
2021/04/06 00:37:13;;;;;;;5.70;2.03;;;1.30;99.90;;;;;;4990736;28;20438;-48
2021/04/06 00:39:40;;;;;;;9.10;1.20;;;1.20;99.90;;;;;;4991095;28;20453;-53
2021/04/06 00:42:09;;;;;;;4.13;1.10;;;1.20;99.90;;;;;;4990422;28;20473;-50
2021/04/06 00:44:38;;;;;;;2.23;1.30;;;1.20;99.90;;;;;;4990116;28;20477;-53
2021/04/06 00:47:05;;;;;;;5.93;1.50;;;1.10;99.90;;;;;;4989878;28;20457;-53
2021/04/06 00:49:33;;;;;;;2.40;1.50;;;1.10;99.90;;;;;;4990691;28;20517;-54
2021/04/06 00:52:05;;;;;;;4.30;1.97;;;1.10;99.90;;;;;;4989988;28;20477;-51
2021/04/06 00:54:34;;;;;;;8.23;1.90;;;1.10;99.90;;;;;;4991063;28;20443;-50
2021/04/06 00:57:01;;;;;;;10.50;1.40;;;1.10;99.90;;;;;;4990732;28;20466;-51
2021/04/06 00:59:30;;;;;;;11.70;1.70;;;1.00;99.90;;;;;;4990937;28;20447;-54
2021/04/06 01:01:59;;;;;;;6.63;1.07;;;1.10;99.90;;;;;;4990534;28;20439;-50
2021/04/06 01:04:27;;;;;;;17.77;2.00;;;1.10;99.90;;;;;;4991045;28;20447;-50
2021/04/06 01:07:06;;;;;;;1.43;1.00;;;1.10;99.90;;;;;;4990649;28;20514;-50
2021/04/06 01:09:42;;;;;;;1.20;0.60;;;1.00;99.90;;;;;;4989512;28;20486;-52
2021/04/06 01:12:11;;;;;;;6.63;1.60;;;1.00;99.90;;;;;;4990807;28;20462;-53
2021/04/06 01:14:39;;;;;;;11.00;2.77;;;1.00;99.90;;;;;;4990352;28;20501;-53
2021/04/06 01:17:06;;;;;;;6.03;1.10;;;1.00;99.90;;;;;;4989178;28;20454;-48
2021/04/06 01:19:33;;;;;;;1.17;0.73;;;1.00;99.90;;;;;;4988848;28;20438;-51
2021/04/06 01:22:00;;;;;;;2.47;1.07;;;1.00;99.90;;;;;;4989463;28;20450;-53
2021/04/06 01:24:28;;;;;;;1.70;1.37;;;1.00;99.90;;;;;;4989884;28;20481;-50
2021/04/06 01:26:55;;;;;;;3.30;2.00;;;1.00;99.90;;;;;;4989717;28;20446;-53
2021/04/06 01:29:21;;;;;;;2.20;1.53;;;0.90;99.90;;;;;;4990223;28;20486;-51
2021/04/06 01:31:48;;;;;;;6.93;2.00;;;0.90;99.90;;;;;;4989662;28;20470;-50
2021/04/06 01:34:15;;;;;;;2.13;0.97;;;0.80;99.90;;;;;;4990794;28;20447;-49
2021/04/06 01:36:41;;;;;;;3.90;1.40;;;0.80;99.90;;;;;;4990878;28;20451;-54
2021/04/06 01:39:08;;;;;;;4.73;1.40;;;0.80;99.90;;;;;;4988845;28;20451;-53
2021/04/06 01:41:35;;;;;;;8.07;1.80;;;0.90;99.90;;;;;;4990889;28;20447;-52
2021/04/06 01:44:02;;;;;;;3.43;1.17;;;0.90;99.90;;;;;;4989537;28;20470;-53
2021/04/06 01:46:32;;;;;;;5.30;2.07;;;0.90;99.90;;;;;;4987955;28;20518;-51
2021/04/06 01:49:00;;;;;;;5.03;1.40;;;0.90;99.90;;;;;;4986903;28;20593;-54
2021/04/06 01:51:26;;;;;;;2.63;1.33;;;0.90;99.90;;;;;;4987998;28;20439;-54
2021/04/06 01:53:53;;;;;;;2.57;1.20;;;0.90;99.90;;;;;;4988085;28;20443;-50
2021/04/06 01:56:24;;;;;;;4.17;1.30;;;1.00;99.90;;;;;;4987325;28;20455;-53
2021/04/06 01:58:55;;;;;;;3.80;2.00;;;1.00;99.90;;;;;;4989101;28;20454;-54
2021/04/06 02:01:22;;;;;;;4.83;1.27;;;1.00;99.90;;;;;;4987086;28;20451;-55
2021/04/06 02:03:55;;;;;;;4.20;1.37;;;1.10;99.90;;;;;;4986094;28;20804;-54
2021/04/06 02:06:24;;;;;;;5.50;1.67;;;1.10;99.90;;;;;;4986520;28;20431;-52
2021/04/06 02:08:51;;;;;;;3.70;1.27;;;1.10;99.90;;;;;;4986080;28;20501;-50
2021/04/06 02:11:20;;;;;;;4.03;2.30;;;1.20;99.90;;;;;;4984854;28;20459;-53
2021/04/06 02:13:46;;;;;;;5.13;1.80;;;1.10;99.90;;;;;;4985343;28;20579;-50
2021/04/06 02:16:13;;;;;;;4.73;1.40;;;1.20;99.90;;;;;;4986559;28;21038;-52
2021/04/06 02:18:39;;;;;;;2.20;1.43;;;1.20;99.90;;;;;;4987865;28;20454;-53
2021/04/06 02:21:06;;;;;;;2.37;1.20;;;1.20;99.90;;;;;;4987115;28;20443;-51
2021/04/06 02:23:37;;;;;;;5.10;2.00;;;1.20;99.90;;;;;;4986081;28;20784;-50
2021/04/06 02:26:04;;;;;;;6.43;1.57;;;1.20;99.90;;;;;;4986592;28;20451;-49
2021/04/06 02:28:30;;;;;;;3.17;1.47;;;1.10;99.90;;;;;;4987027;28;20692;-50
2021/04/06 02:30:59;;;;;;;4.00;1.70;;;1.10;99.90;;;;;;4987019;28;20447;-47
2021/04/06 02:33:28;;;;;;;2.53;1.87;;;1.10;99.90;;;;;;4988455;28;20451;-47
2021/04/06 02:35:57;;;;;;;4.43;1.70;;;1.00;99.90;;;;;;4987977;28;20443;-47
2021/04/06 02:38:23;;;;;;;8.10;2.10;;;1.00;99.90;;;;;;4987933;28;20458;-49
2021/04/06 02:40:49;;;;;;;1.80;1.43;;;1.00;99.90;;;;;;4986768;28;20462;-52
2021/04/06 02:43:15;;;;;;;2.03;1.20;;;1.00;99.90;;;;;;4986546;28;20482;-52
2021/04/06 02:45:42;;;;;;;5.23;1.90;;;1.00;99.90;;;;;;4986699;28;20462;-51
2021/04/06 02:48:11;;;;;;;2.97;1.60;;;1.00;99.90;;;;;;4986605;28;20497;-54
2021/04/06 02:50:40;;;;;;;1.70;1.20;;;1.00;99.90;;;;;;4985732;28;20772;-51
2021/04/06 02:53:10;;;;;;;2.33;1.23;;;1.00;99.90;;;;;;4985908;28;20518;-54
2021/04/06 02:55:38;;;;;;;5.83;2.20;;;1.00;99.90;;;;;;4984968;28;20446;-53
2021/04/06 02:58:13;;;;;;;5.80;1.43;;;1.10;99.90;;;;;;4986390;28;20940;-54
2021/04/06 03:00:39;;;;;;;5.63;2.03;;;1.00;99.90;;;;;;4986346;28;20430;-54
2021/04/06 03:03:21;;;;;;;1.90;1.10;;;1.00;99.90;;;;;;4986721;28;20447;-49
2021/04/06 03:05:59;;;;;;;10.33;2.47;;;1.00;99.90;;;;;;4986368;28;20447;-54
2021/04/06 03:08:29;;;;;;;2.10;1.40;;;0.90;99.90;;;;;;4985671;28;20509;-54
2021/04/06 03:10:56;;;;;;;2.80;1.67;;;0.90;99.90;;;;;;4986707;28;20427;-51
2021/04/06 03:13:24;;;;;;;3.47;1.63;;;0.90;99.90;;;;;;4987052;28;20459;-52
2021/04/06 03:15:51;;;;;;;2.27;1.20;;;0.90;99.90;;;;;;4987687;28;20474;-54
2021/04/06 03:18:18;;;;;;;6.43;1.57;;;0.90;99.90;;;;;;4987624;28;20439;-51
2021/04/06 03:20:44;;;;;;;3.47;1.70;;;0.90;99.90;;;;;;4987770;28;20446;-53
2021/04/06 03:23:11;;;;;;;7.23;2.10;;;0.90;99.90;;;;;;4989754;28;20470;-50
2021/04/06 03:25:38;;;;;;;2.90;1.67;;;0.90;99.90;;;;;;4986822;28;20735;-53
2021/04/06 03:28:06;;;;;;;3.70;2.37;;;0.90;99.90;;;;;;4986718;28;20530;-52
2021/04/06 03:30:34;;;;;;;4.53;1.80;;;0.90;99.90;;;;;;4987572;28;20513;-50
2021/04/06 03:33:01;;;;;;;6.73;2.03;;;0.80;99.90;;;;;;4986839;28;20446;-52
2021/04/06 03:35:28;;;;;;;10.90;2.10;;;0.80;99.90;;;;;;4987422;28;20447;-55
2021/04/06 03:37:55;;;;;;;3.30;2.23;;;0.80;99.90;;;;;;4986068;28;20447;-55
2021/04/06 03:40:22;;;;;;;7.93;2.40;;;0.80;99.90;;;;;;4986354;28;20478;-51
2021/04/06 03:42:48;;;;;;;3.67;1.80;;;0.70;99.90;;;;;;4986530;28;20941;-52
2021/04/06 03:45:15;;;;;;;4.40;2.20;;;0.70;99.90;;;;;;4986724;28;20447;-54
2021/04/06 03:47:59;;;;;;;2.97;2.67;;;0.70;99.90;;;;;;4985520;28;20943;-47
2021/04/06 03:50:37;;;;;;;9.90;2.13;;;0.80;99.90;;;;;;4985095;28;20881;-48
2021/04/06 03:53:04;;;;;;;4.57;2.53;;;0.80;99.90;;;;;;4984855;28;20434;-50
2021/04/06 03:55:32;;;;;;;3.80;1.63;;;0.80;99.90;;;;;;4985505;28;20481;-55
2021/04/06 03:58:09;;;;;;;3.60;2.10;;;0.80;99.90;;;;;;4985729;28;20453;-53
2021/04/06 04:00:35;;;;;;;3.93;1.70;;;0.80;99.90;;;;;;4985234;28;20458;-55
2021/04/06 04:03:01;;;;;;;3.00;2.00;;;0.70;99.90;;;;;;4983236;28;20478;-55
2021/04/06 04:05:28;;;;;;;4.23;1.83;;;0.80;99.90;;;;;;4985344;28;20447;-56
2021/04/06 04:07:54;;;;;;;3.40;2.40;;;0.80;99.90;;;;;;4987315;28;20438;-51
2021/04/06 04:10:20;;;;;;;3.70;2.77;;;0.70;99.90;;;;;;4986551;28;20463;-51
2021/04/06 04:12:47;;;;;;;7.30;3.10;;;0.70;99.90;;;;;;4985409;28;20466;-53
2021/04/06 04:15:14;;;;;;;3.63;2.43;;;0.70;99.90;;;;;;4984748;28;20474;-50
2021/04/06 04:17:40;;;;;;;5.43;2.40;;;0.80;99.90;;;;;;4986246;28;20459;-55
2021/04/06 04:20:09;;;;;;;6.07;2.33;;;0.70;99.90;;;;;;4985126;28;20439;-51
2021/04/06 04:22:35;;;;;;;3.30;1.90;;;0.70;99.90;;;;;;4984625;28;20533;-52
2021/04/06 04:25:02;;;;;;;2.63;1.70;;;0.70;99.90;;;;;;4985182;28;20454;-55
2021/04/06 04:27:29;;;;;;;4.43;1.80;;;0.70;99.90;;;;;;4985637;28;20462;-53
2021/04/06 04:29:56;;;;;;;4.03;2.60;;;0.70;99.90;;;;;;4985917;28;20478;-51
2021/04/06 04:32:22;;;;;;;3.00;1.93;;;0.70;99.90;;;;;;4983375;28;20466;-55
2021/04/06 04:34:48;;;;;;;9.60;2.80;;;0.70;99.90;;;;;;4985722;28;20463;-54
2021/04/06 04:37:15;;;;;;;4.10;2.23;;;0.70;99.90;;;;;;4983935;28;20482;-50
2021/04/06 04:39:43;;;;;;;11.33;3.10;;;0.70;99.90;;;;;;4983556;28;20808;-51
2021/04/06 04:42:10;;;;;;;7.23;2.43;;;0.70;99.90;;;;;;4982423;28;20983;-52
2021/04/06 04:44:37;;;;;;;4.07;2.47;;;0.70;99.90;;;;;;4983401;28;20470;-50
2021/04/06 04:47:04;;;;;;;3.70;2.00;;;0.70;99.90;;;;;;4983475;28;20482;-49
2021/04/06 04:49:30;;;;;;;6.03;2.27;;;0.70;99.90;;;;;;4984037;28;20483;-50
2021/04/06 04:51:56;;;;;;;3.20;2.37;;;0.70;99.90;;;;;;4984522;28;20527;-47
2021/04/06 04:54:22;;;;;;;3.40;2.00;;;0.70;99.90;;;;;;4983954;28;20451;-47
2021/04/06 04:56:49;;;;;;;3.93;2.83;;;0.60;99.90;;;;;;4984152;28;20455;-48
2021/04/06 04:59:15;;;;;;;3.20;2.00;;;0.60;99.90;;;;;;4983958;28;20451;-48
2021/04/06 05:01:41;;;;;;;3.13;2.00;;;0.70;99.90;;;;;;4982870;28;20463;-49
2021/04/06 05:04:08;;;;;;;6.73;2.83;;;0.70;99.90;;;;;;4983620;28;20470;-47
2021/04/06 05:06:34;;;;;;;3.97;2.57;;;0.80;99.90;;;;;;4985813;28;20451;-53
2021/04/06 05:09:01;;;;;;;3.23;2.80;;;0.80;99.90;;;;;;4984412;28;20478;-50
2021/04/06 05:11:28;;;;;;;3.63;2.03;;;0.70;99.90;;;;;;4983528;28;20446;-50
2021/04/06 05:13:54;;;;;;;7.97;2.67;;;0.70;99.90;;;;;;4984313;28;20447;-50
2021/04/06 05:16:20;;;;;;;6.27;3.00;;;0.80;99.90;;;;;;4988042;28;20474;-50
2021/04/06 05:18:47;;;;;;;4.93;3.80;;;0.80;99.90;;;;;;4988039;28;20439;-48
2021/04/06 05:21:14;;;;;;;2.23;1.87;;;0.70;99.90;;;;;;4989091;28;20462;-47
2021/04/06 05:23:41;;;;;;;2.70;1.97;;;0.80;99.90;;;;;;4989674;28;20779;-50
2021/04/06 05:26:08;;;;;;;5.93;3.77;;;0.80;99.90;;;;;;4987947;28;20459;-50
2021/04/06 05:28:34;;;;;;;3.77;1.93;;;0.90;99.90;;;;;;4987768;28;20811;-53
2021/04/06 05:31:00;;;;;;;4.03;1.87;;;0.80;99.90;;;;;;4987330;28;20559;-56
2021/04/06 05:33:26;;;;;;;9.10;2.47;;;0.90;99.90;;;;;;4985872;28;20459;-53
2021/04/06 05:35:53;;;;;;;2.60;2.13;;;0.90;99.90;;;;;;4987171;28;20447;-47
2021/04/06 05:38:20;;;;;;;8.73;3.30;;;1.00;99.90;;;;;;4990085;28;20454;-54
2021/04/06 05:40:46;;;;;;;6.47;2.90;;;1.00;99.90;;;;;;4989171;28;20466;-52
2021/04/06 05:43:15;;;;;;;6.57;2.77;;;1.00;99.90;;;;;;4987263;28;20735;-51
2021/04/06 05:45:45;;;;;;;3.00;2.33;;;1.00;99.90;;;;;;4986270;28;20439;-52
2021/04/06 05:48:15;;;;;;;4.30;2.03;;;1.00;99.90;;;;;;4986078;28;20498;-50
2021/04/06 05:50:45;;;;;;;6.73;2.30;;;1.10;99.90;;;;;;4985691;28;20439;-51
2021/04/06 05:53:11;;;;;;;4.00;2.70;;;1.10;99.90;;;;;;4986148;28;20616;-53
2021/04/06 05:55:38;;;;;;;3.37;1.77;;;1.20;99.90;;;;;;4984273;28;20453;-53
2021/04/06 05:58:05;;;;;;;7.70;3.80;;;1.20;99.90;;;;;;4983475;28;20462;-54
2021/04/06 06:00:31;;;;;;;5.00;2.43;;;1.30;99.90;;;;;;4983838;28;20451;-53
2021/04/06 06:02:57;;;;;;;8.00;3.60;;;1.30;99.90;;;;;;4984072;28;20939;-52
2021/04/06 06:05:23;;;;;;;7.73;2.57;;;1.40;99.90;;;;;;4984820;28;20462;-52
2021/04/06 06:07:50;;;;;;;5.30;4.80;;;1.50;99.90;;;;;;4986621;28;20459;-50
2021/04/06 06:10:30;;;;;;;13.30;3.10;;;1.40;99.90;;;;;;4985314;28;20549;-55
2021/04/06 06:13:16;;;;;;;3.10;2.30;;;1.40;99.90;;;;;;4985295;28;20458;-51
2021/04/06 06:15:42;;;;;;;6.63;2.97;;;1.40;99.90;;;;;;4984176;28;20475;-54
2021/04/06 06:18:09;;;;;;;5.33;2.87;;;1.50;99.90;;;;;;4986285;28;20521;-51
2021/04/06 06:20:36;;;;;;;4.57;2.63;;;1.60;99.90;;;;;;4986852;28;20442;-55
2021/04/06 06:23:19;;;;;;;7.50;3.07;;;1.50;99.90;;;;;;4985659;28;20757;-51
2021/04/06 06:26:13;;;;;;;6.60;2.47;;;1.50;99.90;;;;;;4985472;28;20455;-48
2021/04/06 06:28:41;;;;;;;7.37;3.03;;;1.60;99.90;;;;;;4984867;28;20514;-51
2021/04/06 06:31:08;;;;;;;4.17;2.57;;;1.70;99.90;;;;;;4993317;28;20465;-48
2021/04/06 06:33:35;;;;;;;9.00;3.07;;;1.80;99.90;;;;;;4993301;28;20473;-52
2021/04/06 06:36:04;;;;;;;3.70;2.70;;;1.80;99.90;;;;;;4984459;28;20477;-48
2021/04/06 06:38:38;;;;;;;4.20;2.80;;;1.90;99.90;;;;;;4986217;28;20447;-47
2021/04/06 06:41:12;;;;;;;5.20;2.90;;;2.00;99.90;;;;;;4986530;28;20736;-48
2021/04/06 06:43:40;;;;;;;10.10;3.10;;;2.10;99.90;;;;;;4972074;29;20474;-52
2021/04/06 06:46:17;;;;;;;5.13;3.53;;;2.20;99.90;;;;;;4978961;28;20941;-46
2021/04/06 06:48:52;;;;;;;5.83;3.20;;;2.40;99.90;;;;;;4980683;28;20478;-48
2021/04/06 06:51:19;;;;;;;3.60;2.50;;;2.40;99.90;;;;;;4977824;28;20463;-48
2021/04/06 06:53:45;;;;;;;5.50;2.70;;;2.40;99.90;;;;;;4984312;28;20769;-51
2021/04/06 06:56:12;;;;;;;3.63;2.20;;;2.50;99.90;;;;;;4983734;28;20448;-48
2021/04/06 06:58:41;;;;;;;5.73;2.10;;;2.40;99.90;;;;;;4985788;28;20466;-50
2021/04/06 07:01:08;;;;;;;12.80;3.03;;;2.50;99.90;;;;;;4985479;28;20447;-52
2021/04/06 07:03:34;;;;;;;6.90;2.17;;;2.60;99.90;;;;;;4976440;28;20453;-52
2021/04/06 07:06:21;;;;;;;4.83;2.73;;;2.70;99.90;;;;;;4980167;28;20455;-50
2021/04/06 07:08:48;;;;;;;5.23;2.43;;;2.90;99.90;;;;;;4976341;28;20476;-50
2021/04/06 07:11:16;;;;;;;8.17;3.30;;;3.00;99.90;;;;;;4974351;28;20455;-49
2021/04/06 07:13:45;;;;;;;3.73;1.90;;;3.10;99.90;;;;;;4978544;28;20483;-49
2021/04/06 07:16:14;;;;;;;2.93;1.60;;;3.10;99.90;;;;;;4973278;28;20503;-51
2021/04/06 07:18:43;;;;;;;2.70;2.20;;;3.20;99.90;;;;;;4967024;28;20459;-50
2021/04/06 07:21:12;;;;;;;3.93;2.50;;;3.20;99.90;;;;;;4975465;28;20505;-49
2021/04/06 07:23:44;;;;;;;7.70;2.30;;;3.30;99.90;;;;;;4976924;28;20782;-49
2021/04/06 07:26:12;;;;;;;8.73;2.43;;;3.40;99.90;;;;;;4983489;28;20439;-50
2021/04/06 07:28:39;;;;;;;6.03;2.97;;;3.50;99.90;;;;;;4985603;28;20486;-53
2021/04/06 07:31:07;;;;;;;6.37;2.60;;;3.50;99.90;;;;;;4984342;28;20451;-50
2021/04/06 07:33:34;;;;;;;3.63;2.00;;;3.50;99.90;;;;;;4993461;28;20455;-53
2021/04/06 07:36:04;;;;;;;5.77;3.83;;;3.40;99.90;;;;;;4987283;28;20459;-53
2021/04/06 07:38:34;;;;;;;11.13;2.93;;;3.50;99.90;;;;;;4972576;28;20459;-50
2021/04/06 07:41:01;;;;;;;3.10;1.93;;;3.70;99.90;;;;;;4977215;28;20452;-53
2021/04/06 07:43:28;;;;;;;5.73;3.20;;;3.80;99.90;;;;;;4977659;28;20454;-50
2021/04/06 07:45:54;;;;;;;3.70;2.17;;;3.80;99.90;;;;;;4966948;28;20447;-53
2021/04/06 07:48:41;;;;;;;3.20;1.87;;;4.00;99.90;;;;;;4983190;28;20448;-53
2021/04/06 07:51:25;;;;;;;4.13;2.90;;;4.10;99.90;;;;;;4976777;28;20442;-48
2021/04/06 07:54:04;;;;;;;8.93;3.10;;;3.90;99.90;;;;;;4980156;28;20454;-49
2021/04/06 07:56:56;;;;;;;5.30;2.50;;;3.80;99.90;;;;;;4981350;28;20463;-54
2021/04/06 07:59:49;;;;;;;5.93;2.30;;;3.90;99.90;;;;;;4974399;28;20448;-52
2021/04/06 08:02:30;;;;;;;4.30;3.10;;;4.00;99.90;;;;;;4979687;28;20464;-52
2021/04/06 08:05:06;;;;;;;6.30;2.73;;;4.10;99.90;;;;;;4973164;28;20447;-53
2021/04/06 08:07:34;;;;;;;10.30;3.63;;;4.00;99.90;;;;;;4979284;28;20452;-50
2021/04/06 08:10:03;;;;;;;4.03;2.27;;;4.10;99.90;;;;;;4980761;28;20487;-48
2021/04/06 08:12:33;;;;;;;10.60;3.03;;;4.20;99.90;;;;;;4974094;28;20464;-48
2021/04/06 08:15:01;;;;;;;3.47;2.37;;;4.10;99.90;;;;;;4979454;28;20483;-51
2021/04/06 08:17:44;;;;;;;4.90;2.70;;;4.00;99.90;;;;;;4981238;28;20454;-51
2021/04/06 08:20:22;;;;;;;8.10;3.20;;;3.90;99.90;;;;;;4993908;28;20462;-52
2021/04/06 08:22:51;;;;;;;6.90;3.60;;;3.90;99.90;;;;;;4986600;28;20455;-48
2021/04/06 08:25:46;;;;;;;6.50;3.50;;;4.00;99.90;;;;;;4990121;28;20447;-51
2021/04/06 08:28:39;;;;;;;5.40;3.40;;;4.00;99.90;;;;;;4941611;28;20446;-50
2021/04/06 08:31:24;;;;;;;3.87;2.30;;;4.00;99.90;;;;;;4976013;28;20466;-51
2021/04/06 08:33:51;;;;;;;8.20;3.00;;;4.00;99.90;;;;;;4971593;28;21044;-50
2021/04/06 08:36:26;;;;;;;10.80;2.97;;;4.00;99.90;;;;;;4973802;28;20501;-53
2021/04/06 08:38:53;;;;;;;5.63;2.77;;;4.00;99.90;;;;;;4978779;28;20455;-51
2021/04/06 08:41:38;;;;;;;9.33;3.33;;;4.00;99.90;;;;;;4984922;28;20454;-50
2021/04/06 08:44:09;;;;;;;7.47;3.03;;;3.90;99.90;;;;;;4986423;28;20470;-48
2021/04/06 08:46:49;;;;;;;8.80;3.10;;;3.90;99.90;;;;;;4982761;28;20474;-50
2021/04/06 08:49:19;;;;;;;9.90;2.00;;;4.20;99.90;;;;;;4969877;28;20531;-50
2021/04/06 08:51:48;;;;;;;4.40;2.23;;;4.30;99.90;;;;;;4981809;28;20450;-49
2021/04/06 08:54:18;;;;;;;4.80;2.50;;;4.30;99.90;;;;;;4981328;28;20443;-51
2021/04/06 08:56:47;;;;;;;8.80;2.97;;;4.50;99.90;;;;;;4975707;28;20486;-51
2021/04/06 08:59:16;;;;;;;7.50;3.23;;;4.40;99.90;;;;;;4975931;28;20448;-54
2021/04/06 09:01:44;;;;;;;4.70;3.63;;;4.40;99.90;;;;;;4981974;28;20450;-54
2021/04/06 09:04:12;;;;;;;5.83;2.87;;;4.40;99.90;;;;;;4982090;28;20490;-48
2021/04/06 09:06:39;;;;;;;6.37;2.70;;;4.30;99.90;;;;;;4975552;28;20832;-52
2021/04/06 09:09:06;;;;;;;5.27;3.57;;;4.30;99.90;;;;;;4974652;28;20479;-52
2021/04/06 09:11:33;;;;;;;10.77;3.40;;;4.50;99.90;;;;;;4974582;28;20455;-53
2021/04/06 09:13:59;;;;;;;4.40;2.70;;;4.50;99.90;;;;;;4967351;28;20525;-49
2021/04/06 09:16:26;;;;;;;3.27;2.10;;;4.40;99.90;;;;;;4970015;28;20782;-48
2021/04/06 09:18:54;;;;;;;12.50;3.47;;;4.20;99.90;;;;;;4974202;28;20914;-46
2021/04/06 09:21:23;;;;;;;7.70;2.97;;;4.10;99.90;;;;;;4971335;28;20466;-50
2021/04/06 09:23:53;;;;;;;6.50;3.20;;;4.10;99.90;;;;;;4969960;29;20519;-50
2021/04/06 09:26:21;;;;;;;9.00;3.10;;;4.10;99.90;;;;;;4968267;28;20474;-52
2021/04/06 09:28:47;;;;;;;10.40;3.33;;;4.10;99.90;;;;;;4970403;28;20959;-51
2021/04/06 09:31:14;;;;;;;7.93;3.33;;;4.20;99.90;;;;;;4962067;28;20475;-53
2021/04/06 09:33:40;;;;;;;21.93;4.13;;;4.40;99.90;;;;;;4976266;28;20447;-53
2021/04/06 09:36:12;;;;;;;18.40;3.50;;;4.80;99.90;;;;;;4970793;28;20460;-50
2021/04/06 09:38:39;;;;;;;7.50;3.00;;;5.00;99.90;;;;;;4970179;28;20522;-54
2021/04/06 09:41:08;;;;;;;11.57;4.43;;;4.90;99.90;;;;;;4964761;28;20461;-53
2021/04/06 09:43:35;;;;;;;5.83;3.30;;;4.80;99.90;;;;;;4965983;28;20456;-51
2021/04/06 09:46:02;;;;;;;10.90;3.90;;;4.70;99.90;;;;;;4972835;28;20481;-51
2021/04/06 09:48:28;;;;;;;19.60;3.90;;;4.70;99.90;;;;;;4968801;28;20451;-54
2021/04/06 09:51:00;;;;;;;6.13;2.63;;;4.70;99.90;;;;;;4969153;28;20450;-51
2021/04/06 09:53:27;;;;;;;14.33;3.07;;;5.30;99.90;;;;;;4966418;28;20452;-53
2021/04/06 09:55:55;;;;;;;5.80;2.50;;;5.50;99.90;;;;;;4970239;28;20466;-51
2021/04/06 09:58:22;;;;;;;9.20;3.07;;;5.40;99.90;;;;;;4969661;28;20451;-52
2021/04/06 10:00:50;;;;;;;7.50;3.00;;;6.00;99.90;;;;;;4975535;28;20447;-53
2021/04/06 10:03:23;;;;;;;13.03;3.20;;;6.70;99.90;;;;;;4971786;28;20466;-53
2021/04/06 10:05:50;;;;;;;9.77;2.87;;;6.80;99.90;;;;;;4972392;28;20447;-47
2021/04/06 10:08:28;;;;;;;8.87;2.37;;;6.60;99.90;;;;;;4974444;28;20534;-51
2021/04/06 10:10:54;;;;;;;16.57;4.57;;;6.30;99.90;;;;;;4975863;28;20455;-48
2021/04/06 10:13:20;;;;;;;9.37;2.17;;;6.20;99.90;;;;;;4976223;28;20447;-53
2021/04/06 10:15:47;;;;;;;8.73;2.70;;;6.00;99.90;;;;;;4980874;28;20476;-49
2021/04/06 10:18:15;;;;;;;5.37;2.80;;;6.00;99.90;;;;;;4966408;28;20462;-47
2021/04/06 10:20:44;;;;;;;16.53;2.80;;;5.80;99.90;;;;;;4962888;28;20926;-47
2021/04/06 10:23:11;;;;;;;16.47;3.00;;;5.70;99.90;;;;;;4967622;28;20463;-54
2021/04/06 10:25:42;;;;;;;5.73;2.20;;;6.20;99.90;;;;;;4978607;28;20815;-50
2021/04/06 10:28:18;;;;;;;6.97;2.20;;;7.40;99.90;;;;;;4976607;28;20491;-50
2021/04/06 10:30:47;;;;;;;6.50;2.20;;;8.50;99.90;;;;;;4971808;28;20948;-51
2021/04/06 10:33:16;;;;;;;4.50;2.50;;;8.80;99.90;;;;;;4972779;28;20787;-52
2021/04/06 10:35:45;;;;;;;4.23;2.07;;;8.20;99.90;;;;;;4972433;28;20451;-48
2021/04/06 10:38:17;;;;;;;8.40;2.60;;;7.60;99.90;;;;;;4975709;28;20443;-49
2021/04/06 10:40:44;;;;;;;14.30;2.43;;;7.30;99.90;;;;;;4966502;28;20482;-52
2021/04/06 10:43:13;;;;;;;4.90;3.00;;;6.90;99.90;;;;;;4977175;28;20466;-49
2021/04/06 10:45:42;;;;;;;10.60;3.10;;;6.50;99.90;;;;;;4969589;28;20486;-52
2021/04/06 10:48:13;;;;;;;12.23;2.50;;;6.30;99.90;;;;;;4969363;28;21054;-48
2021/04/06 10:50:42;;;;;;;4.43;2.10;;;6.20;99.90;;;;;;4976585;28;20786;-52
2021/04/06 10:53:25;;;;;;;3.13;2.03;;;6.60;99.90;;;;;;4971697;28;20785;-50
2021/04/06 10:56:08;;;;;;;7.50;3.63;;;6.80;99.90;;;;;;4972307;28;20483;-52
2021/04/06 10:58:36;;;;;;;5.77;2.30;;;6.80;99.90;;;;;;4973993;28;20793;-50
2021/04/06 11:01:06;;;;;;;5.80;2.37;;;6.60;99.90;;;;;;4967837;28;20467;-47
2021/04/06 11:03:44;;;;;;;8.90;3.03;;;6.40;99.90;;;;;;4978621;28;20810;-51
2021/04/06 11:06:19;;;;;;;8.00;2.60;;;6.20;99.90;;;;;;4990050;28;20815;-49
2021/04/06 11:08:49;;;;;;;2.57;1.83;;;6.20;99.90;;;;;;4973779;28;20466;-48
2021/04/06 11:11:26;;;;;;;8.13;3.10;;;6.40;99.90;;;;;;4972872;28;20456;-53
2021/04/06 11:13:53;;;;;;;6.13;1.90;;;6.50;99.90;;;;;;4966306;28;20443;-54
2021/04/06 11:16:20;;;;;;;8.53;2.10;;;6.40;99.90;;;;;;4987123;23;20498;-52
2021/04/06 11:18:57;;;;;;;6.83;2.30;;;6.30;99.90;;;;;;5015623;28;20457;-52
2021/04/06 11:21:25;;;;;;;5.53;2.17;;;6.20;99.90;;;;;;5006837;28;20485;-48
2021/04/06 11:23:51;;;;;;;2.20;1.30;;;6.10;99.90;;;;;;5020965;28;20455;-49
2021/04/06 11:26:18;;;;;;;7.27;1.90;;;6.00;99.90;;;;;;5021236;28;20506;-46
2021/04/06 11:28:45;;;;;;;4.10;1.67;;;6.30;99.90;;;;;;5022363;28;20478;-48
2021/04/06 11:31:12;;;;;;;4.10;1.60;;;6.70;99.90;;;;;;4997601;28;20478;-47
2021/04/06 11:33:38;;;;;;;6.33;1.80;;;7.10;99.90;;;;;;5022172;28;20514;-48
2021/04/06 11:36:05;;;;;;;3.50;1.17;;;7.40;99.90;;;;;;5008860;28;20536;-52
2021/04/06 11:38:32;;;;;;;6.13;1.97;;;7.30;99.90;;;;;;5014470;28;20449;-54
2021/04/06 11:40:59;;;;;;;6.53;2.13;;;7.10;99.90;;;;;;5002554;28;20469;-47
2021/04/06 11:43:25;;;;;;;5.70;1.53;;;6.70;99.90;;;;;;5011219;28;20461;-51
2021/04/06 11:45:51;;;;;;;8.43;2.27;;;6.60;99.90;;;;;;5003093;28;20457;-52
2021/04/06 11:48:17;;;;;;;5.07;2.37;;;6.70;99.90;;;;;;5010940;28;20460;-50
2021/04/06 11:50:44;;;;;;;3.80;1.50;;;7.10;99.90;;;;;;5004385;28;20493;-51
2021/04/06 11:53:10;;;;;;;11.60;2.27;;;7.30;99.90;;;;;;4999115;28;20454;-49
2021/04/06 11:55:37;;;;;;;6.90;1.90;;;7.60;99.90;;;;;;4998667;28;20446;-50
2021/04/06 11:58:04;;;;;;;3.03;1.13;;;8.00;99.90;;;;;;4998276;28;20458;-51
2021/04/06 12:00:30;;;;;;;5.80;1.63;;;8.00;99.90;;;;;;4997800;28;20441;-52
2021/04/06 12:02:56;;;;;;;5.63;2.00;;;7.80;99.90;;;;;;4998075;28;20514;-50
2021/04/06 12:05:24;;;;;;;9.70;2.60;;;7.80;99.90;;;;;;4997655;28;20449;-51
2021/04/06 12:07:50;;;;;;;4.80;2.13;;;7.90;99.90;;;;;;4998039;28;20472;-50
2021/04/06 12:10:19;;;;;;;10.20;2.57;;;7.80;99.90;;;;;;4997481;28;20482;-51
2021/04/06 12:12:46;;;;;;;10.77;1.90;;;8.00;99.90;;;;;;4997449;28;20795;-48
2021/04/06 12:15:13;;;;;;;6.40;2.30;;;8.20;99.90;;;;;;5016902;28;20465;-50
2021/04/06 12:17:42;;;;;;;6.87;2.10;;;8.30;99.90;;;;;;5016928;28;20481;-53
2021/04/06 12:20:09;;;;;;;5.03;1.73;;;8.30;99.90;;;;;;5017501;28;20437;-53
2021/04/06 12:22:35;;;;;;;5.73;1.80;;;8.20;99.90;;;;;;5017213;28;20457;-51
2021/04/06 12:25:02;;;;;;;3.57;1.63;;;8.10;99.90;;;;;;5021089;28;20551;-54
2021/04/06 12:27:28;;;;;;;6.43;1.70;;;7.90;99.90;;;;;;5021654;28;20449;-50
2021/04/06 12:29:55;;;;;;;7.60;2.60;;;7.80;99.90;;;;;;5022036;28;20480;-49
2021/04/06 12:32:21;;;;;;;13.10;2.70;;;7.60;99.90;;;;;;5020637;28;20794;-52
2021/04/06 12:34:48;;;;;;;4.63;2.40;;;7.70;99.90;;;;;;5020921;28;20479;-49
2021/04/06 12:37:14;;;;;;;5.27;1.53;;;7.50;99.90;;;;;;5021780;28;20884;-51
2021/04/06 12:39:40;;;;;;;6.27;1.50;;;7.20;99.90;;;;;;5022931;28;20457;-46
2021/04/06 12:42:07;;;;;;;6.80;1.60;;;7.00;97.40;;;;;;5023730;28;20449;-51
2021/04/06 12:44:33;;;;;;;3.07;1.30;;;6.90;95.80;;;;;;5023150;28;20449;-51
2021/04/06 12:47:00;;;;;;;3.17;1.40;;;7.00;95.90;;;;;;5022524;28;20440;-51
2021/04/06 12:49:28;;;;;;;4.30;1.63;;;7.10;95.10;;;;;;5022429;28;20481;-50
2021/04/06 12:51:54;;;;;;;5.90;1.70;;;7.00;94.10;;;;;;5023096;28;20441;-49
2021/04/06 12:54:21;;;;;;;2.17;1.10;;;7.00;94.50;;;;;;5022412;28;20817;-51
2021/04/06 12:56:48;;;;;;;4.53;1.63;;;7.20;95.00;;;;;;5022516;28;20455;-53
2021/04/06 12:59:15;;;;;;;5.37;1.63;;;7.50;95.40;;;;;;5022537;28;20457;-48
2021/04/06 13:01:41;;;;;;;4.00;1.40;;;7.80;93.60;;;;;;5022442;28;20445;-50
2021/04/06 13:04:08;;;;;;;3.17;1.77;;;7.70;92.60;;;;;;5023533;28;20453;-49
2021/04/06 13:06:36;;;;;;;2.93;1.27;;;7.40;93.60;;;;;;5023409;28;20449;-48